Time;durP1;ratioP1;P1;durP2;ratioP2;P2;SDS_P1;SDS_P2;PMS_P1;PMS_P2;Temp;Humidity;BMP_temperature;BMP_pressure;BME280_temperature;BME280_humidity;BME280_pressure;Samples;Min_cycle;Max_cycle;Signal;HPM_P1;HPM_P2
2021/05/13 00:00:49;;;;;;;13.57;2.10;;;;;;;15.70;65.89;100890.34;5042301;28;20055;-69
2021/05/13 00:03:16;;;;;;;5.13;1.73;;;;;;;15.63;65.77;100870.19;5040328;28;20407;-67
2021/05/13 00:05:42;;;;;;;13.07;2.30;;;;;;;15.61;66.04;100876.09;5037506;28;20067;-69
2021/05/13 00:08:09;;;;;;;13.70;2.57;;;;;;;15.62;66.27;100882.56;5039908;28;20041;-68
2021/05/13 00:10:38;;;;;;;7.07;1.70;;;;;;;15.51;66.44;100884.69;5044515;28;20044;-70
2021/05/13 00:13:06;;;;;;;15.35;2.83;;;;;;;15.55;66.31;100891.38;5041609;28;20105;-71
2021/05/13 00:15:38;;;;;;;11.27;2.37;;;;;;;15.51;66.35;100884.69;5038469;28;20045;-71
2021/05/13 00:18:06;;;;;;;11.97;1.90;;;;;;;15.46;66.54;100876.34;5045549;28;20055;-70
2021/05/13 00:20:38;;;;;;;11.50;1.90;;;;;;;15.58;66.55;100875.88;5046310;28;20423;-69
2021/05/13 00:23:08;;;;;;;8.60;2.80;;;;;;;15.64;66.29;100875.47;5035816;28;20045;-69
2021/05/13 00:25:38;;;;;;;10.13;2.28;;;;;;;15.59;66.62;100877.56;5045592;28;20041;-71
2021/05/13 00:28:05;;;;;;;7.83;2.40;;;;;;;15.43;67.08;100864.88;5042142;28;20072;-75
2021/05/13 00:30:32;;;;;;;10.50;2.73;;;;;;;15.31;67.11;100851.25;5042608;28;20040;-66
2021/05/13 00:32:58;;;;;;;3.33;1.17;;;;;;;15.20;67.63;100853.38;5039245;28;20041;-66
2021/05/13 00:35:25;;;;;;;12.90;2.07;;;;;;;15.23;67.78;100855.59;5040692;28;20047;-68
2021/05/13 00:37:56;;;;;;;5.53;1.85;;;;;;;15.06;68.59;100855.28;5037071;28;20047;-66
2021/05/13 00:40:25;;;;;;;4.23;1.60;;;;;;;15.01;68.39;100846.91;5038120;28;20068;-68
2021/05/13 00:42:52;;;;;;;11.30;2.03;;;;;;;15.04;68.32;100846.31;5041143;28;20056;-73
2021/05/13 00:45:22;;;;;;;8.80;2.60;;;;;;;15.12;68.58;100854.09;5041664;28;20049;-77
2021/05/13 00:50:25;;;;;;;6.67;2.17;;;;;;;15.17;68.90;100845.56;5043171;28;20384;-75
2021/05/13 00:52:52;;;;;;;8.77;2.23;;;;;;;15.26;69.07;100855.00;5038620;28;20041;-76
2021/05/13 00:55:21;;;;;;;7.60;2.40;;;;;;;15.29;69.00;100845.94;5036052;28;20049;-75
2021/05/13 00:57:53;;;;;;;10.67;2.17;;;;;;;15.28;69.05;100837.78;5043304;28;20120;-74
2021/05/13 01:02:57;;;;;;;5.93;2.13;;;;;;;15.33;69.42;100844.19;5039747;28;20043;-71
2021/05/13 01:05:28;;;;;;;9.67;2.07;;;;;;;15.35;69.43;100839.09;5043740;28;20098;-73
2021/05/13 01:08:00;;;;;;;11.70;2.30;;;;;;;15.36;69.57;100831.50;5040393;28;20055;-72
2021/05/13 01:10:28;;;;;;;14.30;2.57;;;;;;;15.33;69.60;100813.22;5044695;28;20045;-71
2021/05/13 01:12:59;;;;;;;10.67;2.53;;;;;;;15.43;69.59;100831.09;5040929;28;20045;-66
2021/05/13 01:18:25;;;;;;;10.93;2.13;;;;;;;15.47;70.02;100820.91;5021613;28;20048;-68
2021/05/13 01:20:53;;;;;;;9.73;3.17;;;;;;;15.45;70.19;100824.00;5036335;28;20101;-67
2021/05/13 01:23:20;;;;;;;21.20;2.83;;;;;;;15.54;70.47;100815.72;5033369;28;20428;-68
2021/05/13 01:25:53;;;;;;;12.03;2.57;;;;;;;15.56;70.54;100807.81;5039453;28;20115;-68
2021/05/13 01:28:23;;;;;;;11.93;2.47;;;;;;;15.52;71.56;100801.09;5034994;28;20064;-67
2021/05/13 01:30:52;;;;;;;21.33;2.93;;;;;;;15.54;71.73;100798.81;5037924;28;20505;-67
2021/05/13 01:33:24;;;;;;;8.60;2.00;;;;;;;15.58;72.13;100794.25;5039671;28;20049;-66
2021/05/13 01:35:52;;;;;;;12.83;2.93;;;;;;;15.55;72.22;100784.44;5034282;28;20428;-68
2021/05/13 01:38:23;;;;;;;8.97;2.03;;;;;;;15.57;72.42;100786.94;5036465;28;20056;-66
2021/05/13 01:40:56;;;;;;;15.97;2.33;;;;;;;15.58;72.85;100785.78;5037714;28;20135;-66
2021/05/13 01:43:24;;;;;;;8.70;2.00;;;;;;;15.40;73.03;100748.94;5034318;28;20053;-72
2021/05/13 01:45:52;;;;;;;20.77;2.80;;;;;;;15.66;73.17;100787.94;5041433;28;20138;-66
2021/05/13 01:48:19;;;;;;;9.67;1.97;;;;;;;15.57;73.57;100775.69;5041469;28;20053;-66
2021/05/13 01:50:49;;;;;;;6.03;2.13;;;;;;;15.50;73.64;100766.81;5038089;28;20061;-65
2021/05/13 01:53:16;;;;;;;14.60;2.90;;;;;;;15.51;73.68;100751.59;5041979;28;20041;-67
2021/05/13 01:55:45;;;;;;;;;;;;;;;15.54;73.94;100743.34;5036779;28;20114;-66
2021/05/13 01:58:13;;;;;;;5.43;1.30;;;;;;;15.43;74.04;100726.97;5037968;28;19927;-66
2021/05/13 02:00:43;;;;;;;2.47;1.27;;;;;;;15.26;74.45;100717.13;5037528;28;20072;-68
2021/05/13 02:03:11;;;;;;;7.53;1.67;;;;;;;15.16;74.86;100728.56;5042014;28;20138;-66
2021/05/13 02:05:38;;;;;;;8.97;2.77;;;;;;;15.26;74.58;100742.44;5040905;28;20499;-70
2021/05/13 02:08:08;;;;;;;14.03;2.53;;;;;;;15.21;74.50;100730.44;5039662;28;20053;-68
2021/05/13 02:10:35;;;;;;;15.93;2.88;;;;;;;15.29;74.63;100730.59;5033434;28;20069;-69
2021/05/13 02:13:02;;;;;;;18.97;2.77;;;;;;;15.30;74.67;100742.66;5034667;28;20049;-69
2021/05/13 02:15:29;;;;;;;13.87;2.80;;;;;;;15.35;74.69;100746.25;5039736;28;20488;-68
2021/05/13 02:18:00;;;;;;;10.80;2.43;;;;;;;15.32;74.78;100746.03;5039647;28;20049;-71
2021/05/13 02:20:27;;;;;;;12.80;2.90;;;;;;;15.35;75.00;100739.75;5034584;28;20065;-70
2021/05/13 02:22:58;;;;;;;16.07;2.53;;;;;;;15.34;74.69;100736.09;5043093;28;20102;-74
2021/05/13 02:25:31;;;;;;;10.93;2.50;;;;;;;15.33;74.46;100709.13;5036731;28;20069;-71
2021/05/13 02:28:07;;;;;;;11.40;2.30;;;;;;;15.39;74.71;100727.59;5035268;28;20061;-64
2021/05/13 02:30:34;;;;;;;19.20;2.27;;;;;;;15.51;74.47;100740.31;5035205;28;20040;-65
2021/05/13 02:33:03;;;;;;;13.70;3.47;;;;;;;15.50;74.23;100733.03;5038604;28;20045;-65
2021/05/13 02:35:31;;;;;;;14.50;2.40;;;;;;;15.61;74.45;100749.41;5035693;28;20049;-66
2021/05/13 02:37:59;;;;;;;10.20;2.27;;;;;;;15.55;74.20;100733.75;5031235;28;20041;-65
2021/05/13 02:40:26;;;;;;;10.77;2.47;;;;;;;15.64;74.46;100734.72;5041674;28;20047;-70
2021/05/13 02:42:53;;;;;;;8.67;1.93;;;;;;;15.48;74.24;100708.00;5037125;28;20140;-73
2021/05/13 02:45:20;;;;;;;10.43;2.77;;;;;;;15.62;74.10;100725.78;5037331;28;20083;-70
2021/05/13 02:47:47;;;;;;;18.67;2.90;;;;;;;15.66;74.19;100717.56;5044595;28;20523;-71
2021/05/13 02:50:16;;;;;;;16.60;3.50;;;;;;;15.67;73.91;100722.03;5040105;28;20045;-68
2021/05/13 02:52:42;;;;;;;18.50;3.17;;;;;;;15.72;73.92;100721.09;5041916;28;20076;-80
2021/05/13 02:55:10;;;;;;;12.10;2.90;;;;;;;15.77;73.85;100724.66;5042087;28;20053;-79
2021/05/13 02:57:38;;;;;;;21.37;3.03;;;;;;;15.58;73.74;100698.53;5041423;28;20502;-81
2021/05/13 03:02:43;;;;;;;19.83;3.10;;;;;;;15.47;73.87;100663.28;5042351;28;20126;-80
2021/05/13 03:05:10;;;;;;;15.37;3.23;;;;;;;15.73;73.59;100700.28;5040950;28;20045;-78
2021/05/13 03:07:43;;;;;;;15.70;3.37;;;;;;;15.80;73.46;100707.16;5038156;28;20048;-73
2021/05/13 03:10:21;;;;;;;24.83;2.83;;;;;;;15.78;73.55;100708.59;5036531;28;20463;-73
2021/05/13 03:12:52;;;;;;;18.93;2.90;;;;;;;15.87;73.60;100718.84;5040589;28;20455;-76
2021/05/13 03:15:21;;;;;;;17.90;2.93;;;;;;;15.75;73.48;100704.41;5042095;28;20052;-78
2021/05/13 03:17:50;;;;;;;19.37;3.73;;;;;;;15.81;73.29;100714.44;5034293;28;20059;-77
2021/05/13 03:20:21;;;;;;;14.03;2.20;;;;;;;15.49;73.28;100661.00;5033663;28;20076;-69
2021/05/13 03:22:52;;;;;;;10.60;2.63;;;;;;;15.68;73.29;100678.66;5035390;28;20045;-69
2021/05/13 03:25:25;;;;;;;13.93;3.90;;;;;;;15.68;73.37;100689.91;5033620;28;20504;-64
2021/05/13 03:27:55;;;;;;;13.87;2.80;;;;;;;15.64;73.19;100692.50;5038308;28;20411;-65
2021/05/13 03:30:25;;;;;;;;;;;;;;;15.63;73.33;100693.66;5039943;28;20066;-66
2021/05/13 03:32:52;;;;;;;8.80;2.70;;;;;;;15.57;73.16;100680.81;5032849;28;19931;-67
2021/05/13 03:35:20;;;;;;;12.43;2.90;;;;;;;15.38;73.34;100654.72;5034299;28;20041;-70
2021/05/13 03:37:47;;;;;;;15.03;2.60;;;;;;;15.48;73.40;100667.78;5038638;28;20037;-67
2021/05/13 03:40:14;;;;;;;14.17;2.87;;;;;;;15.46;73.41;100678.53;5039506;28;20051;-66
2021/05/13 03:42:40;;;;;;;9.73;3.50;;;;;;;15.33;73.41;100664.09;5036862;28;20064;-72
2021/05/13 03:45:08;;;;;;;14.30;3.50;;;;;;;15.48;73.44;100679.84;5035865;28;20135;-70
2021/05/13 03:47:35;;;;;;;17.93;2.63;;;;;;;15.39;73.70;100673.28;5032164;28;20080;-63
2021/05/13 03:50:02;;;;;;;12.27;3.57;;;;;;;15.43;73.67;100662.25;5038342;28;20431;-67
2021/05/13 03:52:31;;;;;;;;;;;;;;;15.48;73.59;100667.78;5035976;28;20046;-69
2021/05/13 03:54:58;;;;;;;14.33;2.70;;;;;;;15.36;73.88;100657.84;5033174;28;20035;-69
2021/05/13 03:57:28;;;;;;;14.37;2.30;;;;;;;15.27;73.72;100645.63;5034992;28;20064;-65
2021/05/13 03:59:57;;;;;;;11.25;2.13;;;;;;;15.20;73.88;100633.97;5033129;28;20071;-66
2021/05/13 04:02:32;;;;;;;;;;;;;;;15.32;74.17;100651.19;5035665;28;20424;-67
2021/05/13 04:05:01;;;;;;;12.00;2.57;;;;;;;15.26;74.13;100645.97;5036777;28;19924;-65
2021/05/13 04:07:33;;;;;;;11.90;1.63;;;;;;;15.07;74.06;100620.69;5039046;28;20042;-65
2021/05/13 04:10:06;;;;;;;14.50;2.97;;;;;;;15.16;74.20;100627.28;5034708;28;20527;-62
2021/05/13 04:12:40;;;;;;;11.47;2.73;;;;;;;14.96;74.22;100585.47;5033700;28;20383;-63
2021/05/13 04:15:09;;;;;;;11.67;2.47;;;;;;;15.28;74.01;100641.69;5033754;28;20388;-63
2021/05/13 04:17:36;;;;;;;6.63;1.70;;;;;;;15.20;74.51;100628.34;5033528;28;20042;-64
2021/05/13 04:20:06;;;;;;;12.53;2.30;;;;;;;15.23;74.25;100627.72;5038802;28;20068;-63
2021/05/13 04:22:32;;;;;;;16.17;3.07;;;;;;;15.27;74.26;100631.56;5032264;28;20041;-64
2021/05/13 04:24:59;;;;;;;8.57;2.23;;;;;;;15.36;74.03;100629.72;5040515;28;20126;-64
2021/05/13 04:27:26;;;;;;;10.33;2.80;;;;;;;15.32;73.98;100627.84;5042188;28;20040;-64
2021/05/13 04:29:53;;;;;;;11.87;2.60;;;;;;;15.36;73.99;100615.66;5039368;28;20045;-65
2021/05/13 04:32:20;;;;;;;9.13;1.63;;;;;;;15.18;74.21;100596.88;5038285;28;20385;-64
2021/05/13 04:34:47;;;;;;;11.70;2.33;;;;;;;15.05;74.60;100595.72;5040100;28;20049;-64
2021/05/13 04:37:14;;;;;;;9.27;1.93;;;;;;;15.11;74.68;100593.63;5036677;28;20407;-64
2021/05/13 04:39:41;;;;;;;13.03;1.77;;;;;;;15.12;74.57;100589.69;5036959;28;20068;-64
2021/05/13 04:42:08;;;;;;;8.60;2.27;;;;;;;15.12;74.88;100589.69;5038897;28;20049;-64
2021/05/13 04:44:36;;;;;;;13.17;3.10;;;;;;;15.01;75.05;100589.03;5037190;28;20052;-64
2021/05/13 04:49:50;;;;;;;6.03;1.33;;;;;;;15.09;74.99;100590.28;5036900;28;20053;-65
2021/05/13 04:52:19;;;;;;;16.17;3.00;;;;;;;15.04;74.80;100582.81;5039784;28;20050;-66
2021/05/13 04:54:54;;;;;;;9.37;1.67;;;;;;;15.11;74.86;100588.84;5038335;28;20053;-66
2021/05/13 04:57:22;;;;;;;12.00;1.90;;;;;;;15.12;74.87;100590.50;5043365;28;20041;-66
2021/05/13 04:59:49;;;;;;;18.40;2.73;;;;;;;15.19;74.50;100595.72;5036557;28;20063;-65
2021/05/13 05:02:16;;;;;;;14.07;2.37;;;;;;;15.23;74.50;100584.69;5039010;28;20051;-67
2021/05/13 05:04:43;;;;;;;17.03;2.90;;;;;;;15.32;74.39;100589.28;5042075;28;20045;-65
2021/05/13 05:07:10;;;;;;;8.53;1.87;;;;;;;15.32;74.48;100563.97;5036167;28;20041;-66
2021/05/13 05:09:38;;;;;;;18.07;2.83;;;;;;;15.33;74.48;100557.19;5038417;28;20087;-66
2021/05/13 05:12:12;;;;;;;13.10;2.27;;;;;;;15.35;74.41;100549.28;5039115;28;20086;-69
2021/05/13 05:14:39;;;;;;;7.13;2.13;;;;;;;15.36;74.15;100548.13;5043595;28;20068;-68
2021/05/13 05:17:06;;;;;;;12.53;2.60;;;;;;;15.36;74.31;100533.22;5035409;28;20049;-68
2021/05/13 05:19:34;;;;;;;9.07;1.77;;;;;;;15.32;74.10;100527.38;5032725;28;20041;-68
2021/05/13 05:22:03;;;;;;;15.37;3.90;;;;;;;15.35;74.24;100545.59;5036677;28;20055;-65
2021/05/13 05:24:30;;;;;;;12.60;2.00;;;;;;;15.30;74.24;100538.09;5039464;28;20049;-63
2021/05/13 05:27:00;;;;;;;11.00;2.23;;;;;;;15.30;74.56;100540.94;5040655;28;20496;-64
2021/05/13 05:29:29;;;;;;;11.60;2.47;;;;;;;15.34;74.37;100555.19;5040272;28;20045;-76
2021/05/13 05:31:57;;;;;;;7.80;3.23;;;;;;;15.30;74.59;100546.56;5041342;28;20444;-71
2021/05/13 05:34:24;;;;;;;13.07;3.17;;;;;;;15.38;74.60;100559.91;5039980;28;20045;-72
2021/05/13 05:36:51;;;;;;;9.97;2.07;;;;;;;15.54;74.17;100568.03;5038990;28;20431;-70
2021/05/13 05:39:18;;;;;;;14.23;3.00;;;;;;;15.63;73.76;100569.78;5035993;28;20068;-74
2021/05/13 05:41:45;;;;;;;19.47;2.70;;;;;;;15.64;73.67;100571.44;5040272;28;20064;-72
2021/05/13 05:44:13;;;;;;;19.47;2.40;;;;;;;15.66;73.83;100574.00;5034180;28;20064;-77
2021/05/13 05:46:40;;;;;;;9.77;3.07;;;;;;;15.59;73.71;100563.13;5035375;28;20052;-67
2021/05/13 05:49:07;;;;;;;17.17;2.83;;;;;;;15.45;73.67;100531.31;5037071;28;20045;-73
2021/05/13 05:51:34;;;;;;;11.50;2.53;;;;;;;15.57;73.90;100570.22;5033235;28;20415;-68
2021/05/13 05:54:01;;;;;;;16.23;3.07;;;;;;;15.41;74.43;100562.06;5036346;28;20046;-71
2021/05/13 05:56:30;;;;;;;11.57;2.70;;;;;;;15.02;75.00;100528.00;5035536;28;20086;-73
2021/05/13 05:59:01;;;;;;;22.77;4.07;;;;;;;15.03;74.96;100540.91;5037923;28;20041;-73
2021/05/13 06:01:28;;;;;;;8.98;1.48;;;;;;;15.06;75.26;100551.53;5037185;28;20049;-79
2021/05/13 06:03:57;;;;;;;23.77;2.92;;;;;;;14.87;76.08;100544.03;5035281;28;20446;-72
2021/05/13 06:06:24;;;;;;;13.13;2.33;;;;;;;14.81;76.67;100556.50;5044629;28;20127;-73
2021/05/13 06:08:51;;;;;;;13.13;2.50;;;;;;;14.74;76.59;100538.38;5041792;28;20055;-73
2021/05/13 06:11:18;;;;;;;5.00;1.40;;;;;;;14.59;77.29;100542.28;5038671;28;20038;-75
2021/05/13 06:13:44;;;;;;;4.40;1.43;;;;;;;14.67;77.38;100535.97;5037893;28;20411;-75
2021/05/13 06:16:11;;;;;;;13.53;2.63;;;;;;;14.58;77.30;100523.75;5033678;28;20067;-75
2021/05/13 06:19:07;;;;;;;18.83;3.00;;;;;;;14.70;77.33;100538.16;5038803;28;20076;-72
2021/05/13 06:21:38;;;;;;;18.77;3.20;;;;;;;14.57;77.37;100527.72;5033042;28;20045;-73
2021/05/13 06:24:08;;;;;;;11.43;2.07;;;;;;;14.64;76.93;100531.78;5036127;28;20132;-73
2021/05/13 06:26:35;;;;;;;13.68;2.85;;;;;;;14.59;77.96;100539.47;5034684;28;20480;-73
2021/05/13 06:29:04;;;;;;;12.87;2.17;;;;;;;14.53;78.28;100530.31;5031456;28;20056;-72
2021/05/13 06:31:34;;;;;;;9.13;2.50;;;;;;;14.50;78.36;100522.50;5040313;28;20366;-70
2021/05/13 06:34:03;;;;;;;5.17;1.63;;;;;;;14.53;78.15;100530.31;5031221;28;21333;-67
2021/05/13 06:36:30;;;;;;;19.60;2.90;;;;;;;14.50;78.20;100525.31;5039347;28;20079;-70
2021/05/13 06:38:56;;;;;;;16.63;3.17;;;;;;;14.55;78.37;100532.78;5038164;28;20041;-71
2021/05/13 06:41:23;;;;;;;9.50;3.17;;;;;;;14.45;78.85;100531.78;5041142;28;20049;-71
2021/05/13 06:43:50;;;;;;;10.87;2.90;;;;;;;14.56;78.75;100526.03;5038067;28;20056;-71
2021/05/13 06:46:17;;;;;;;12.33;2.60;;;;;;;14.38;79.72;100534.16;5041344;28;20045;-72
2021/05/13 06:48:51;;;;;;;7.33;2.70;;;;;;;14.23;79.44;100500.72;5036164;28;20049;-73
2021/05/13 06:51:19;;;;;;;7.90;1.93;;;;;;;14.46;79.32;100518.56;5035345;28;20064;-73
2021/05/13 06:53:50;;;;;;;15.67;2.87;;;;;;;14.53;79.32;100507.81;5032366;28;20419;-71
2021/05/13 06:56:16;;;;;;;;;;;;;;;14.70;79.35;100521.28;5035945;28;20045;-72
2021/05/13 06:58:44;;;;;;;12.67;2.50;;;;;;;14.52;79.64;100508.13;5032379;28;19925;-72
2021/05/13 07:01:11;;;;;;;16.00;2.93;;;;;;;14.50;79.94;100504.78;5033927;28;20041;-73
2021/05/13 07:03:38;;;;;;;9.07;2.47;;;;;;;14.60;79.95;100516.69;5031283;28;20059;-74
2021/05/13 07:06:08;;;;;;;8.18;2.65;;;;;;;14.63;79.64;100503.97;5031822;28;20052;-70
2021/05/13 07:08:35;;;;;;;13.10;2.90;;;;;;;14.67;79.99;100511.50;5031823;28;20045;-72
2021/05/13 07:11:01;;;;;;;9.33;2.47;;;;;;;14.68;80.38;100512.31;5032220;28;20045;-71
2021/05/13 07:13:28;;;;;;;21.07;3.40;;;;;;;14.75;80.60;100521.19;5035992;28;20041;-75
2021/05/13 07:15:55;;;;;;;10.27;2.27;;;;;;;14.72;81.01;100513.38;5031856;28;20041;-72
2021/05/13 07:18:25;;;;;;;10.43;2.87;;;;;;;14.72;81.04;100507.75;5031596;28;20041;-71
2021/05/13 07:20:52;;;;;;;4.78;2.53;;;;;;;14.74;81.13;100499.84;5032297;28;20041;-70
2021/05/13 07:23:19;;;;;;;16.53;2.93;;;;;;;14.78;81.33;100505.69;5031377;28;20056;-75
2021/05/13 07:26:00;;;;;;;13.73;2.83;;;;;;;14.69;81.84;100513.97;5031537;28;20095;-72
2021/05/13 07:28:27;;;;;;;4.43;1.50;;;;;;;14.74;81.91;100527.97;5031706;28;20055;-76
2021/05/13 07:30:53;;;;;;;16.20;3.10;;;;;;;14.75;81.82;100512.75;5032709;28;20038;-73
2021/05/13 07:33:23;;;;;;;14.48;2.85;;;;;;;14.69;82.28;100512.00;5032108;28;20409;-71
2021/05/13 07:35:50;;;;;;;11.27;3.27;;;;;;;14.79;82.01;100522.22;5031760;28;20042;-73
2021/05/13 07:38:16;;;;;;;20.00;3.73;;;;;;;14.81;82.08;100503.09;5031942;28;20120;-71
2021/05/13 07:40:43;;;;;;;6.97;2.43;;;;;;;14.80;82.59;100512.69;5031265;28;20128;-73
2021/05/13 07:43:10;;;;;;;13.90;2.27;;;;;;;14.86;82.30;100508.59;5031402;28;20550;-76
2021/05/13 07:45:43;;;;;;;6.13;1.97;;;;;;;14.88;82.47;100511.13;5032494;28;20510;-75
2021/05/13 07:48:12;;;;;;;11.97;2.67;;;;;;;14.91;82.52;100504.88;5038914;28;20785;-74
2021/05/13 07:50:42;;;;;;;14.00;2.67;;;;;;;14.76;82.57;100475.06;5040049;28;20060;-74
2021/05/13 07:53:12;;;;;;;9.32;2.50;;;;;;;14.90;82.31;100478.72;5031380;28;20041;-74
2021/05/13 07:55:39;;;;;;;10.17;2.50;;;;;;;15.03;82.42;100509.97;5034099;28;20164;-73
2021/05/13 07:58:06;;;;;;;28.87;2.60;;;;;;;15.00;82.69;100503.00;5038760;28;20071;-76
2021/05/13 08:00:33;;;;;;;20.33;3.83;;;;;;;14.89;83.21;100491.09;5044059;28;20498;-77
2021/05/13 08:03:02;;;;;;;13.67;3.13;;;;;;;14.99;83.24;100508.94;5040902;28;20060;-76
2021/05/13 08:05:32;;;;;;;12.50;2.78;;;;;;;15.03;82.98;100508.00;5036407;28;20049;-76
2021/05/13 08:07:59;;;;;;;12.70;3.33;;;;;;;15.04;82.91;100506.00;5041212;28;20057;-76
2021/05/13 08:10:29;;;;;;;19.10;2.40;;;;;;;15.05;83.02;100511.34;5042193;28;20056;-76
2021/05/13 08:12:57;;;;;;;15.02;2.85;;;;;;;15.11;83.10;100509.22;5037269;28;20051;-76
2021/05/13 08:15:24;;;;;;;10.83;2.37;;;;;;;15.12;83.12;100499.69;5035816;28;20129;-76
2021/05/13 08:17:51;;;;;;;21.70;3.73;;;;;;;15.20;82.86;100513.00;5034669;28;20073;-76
2021/05/13 08:20:21;;;;;;;23.57;3.53;;;;;;;15.23;83.10;100514.34;5036008;28;20099;-76
2021/05/13 08:22:49;;;;;;;20.23;2.83;;;;;;;15.21;83.38;100517.47;5039508;28;20135;-75
2021/05/13 08:25:20;;;;;;;14.70;2.80;;;;;;;15.27;83.17;100507.78;5037692;28;20140;-75
2021/05/13 08:27:48;;;;;;;15.27;3.17;;;;;;;15.31;83.10;100496.72;5039438;28;20111;-76
2021/05/13 08:30:19;;;;;;;12.33;2.57;;;;;;;15.34;83.10;100496.94;5035675;28;20137;-75
2021/05/13 08:32:46;;;;;;;6.67;1.63;;;;;;;15.33;83.00;100483.19;5034119;28;20047;-73
2021/05/13 08:35:13;;;;;;;8.97;2.23;;;;;;;15.35;83.15;100490.19;5033637;28;20045;-72
2021/05/13 08:37:40;;;;;;;25.90;2.57;;;;;;;15.46;83.20;100499.25;5041266;28;20128;-73
2021/05/13 08:40:08;;;;;;;15.87;1.87;;;;;;;15.50;83.47;100494.63;5034575;28;20055;-77
2021/05/13 08:42:41;;;;;;;11.70;2.50;;;;;;;15.48;83.31;100493.28;5034601;28;20064;-76
2021/05/13 08:45:09;;;;;;;17.70;2.77;;;;;;;15.49;83.35;100489.34;5034179;28;20046;-76
2021/05/13 08:47:46;;;;;;;6.40;2.47;;;;;;;15.53;83.38;100499.63;5033122;28;20041;-76
2021/05/13 08:50:16;;;;;;;9.57;1.67;;;;;;;15.54;83.63;100492.03;5033243;28;20053;-73
2021/05/13 08:52:43;;;;;;;9.65;2.10;;;;;;;15.54;83.73;100495.66;5033753;28;20052;-74
2021/05/13 08:55:15;;;;;;;5.47;2.42;;;;;;;15.49;83.95;100487.34;5035670;28;20143;-74
2021/05/13 08:57:43;;;;;;;0.50;0.50;;;;;;;15.43;83.70;100494.22;5036780;28;20041;-74
2021/05/13 09:00:10;;;;;;;0.10;0.10;;;;;;;15.53;83.96;100493.19;5042946;28;20041;-73
2021/05/13 09:02:37;;;;;;;0.50;0.50;;;;;;;15.54;84.01;100489.22;5033494;28;20091;-73
2021/05/13 09:05:05;;;;;;;0.30;0.30;;;;;;;15.56;84.06;100484.13;5034193;28;20041;-73
2021/05/13 09:07:32;;;;;;;0.40;0.40;;;;;;;15.62;83.89;100491.25;5035380;28;20052;-73
2021/05/13 09:10:07;;;;;;;0.20;0.20;;;;;;;15.65;84.21;100485.84;5036404;28;20422;-72
2021/05/13 09:12:37;;;;;;;0.80;0.80;;;;;;;15.63;83.93;100470.44;5036501;28;20049;-73
2021/05/13 09:15:20;;;;;;;1.65;0.63;;;;;;;15.62;83.98;100458.34;5033071;28;20050;-73
2021/05/13 09:17:52;;;;;;;0.17;0.17;;;;;;;15.76;84.23;100478.03;5038414;28;20056;-73
2021/05/13 09:20:43;;;;;;;0.10;0.10;;;;;;;15.78;84.30;100477.72;5033288;28;20440;-74
2021/05/13 09:23:26;;;;;;;0.32;0.32;;;;;;;15.78;84.30;100472.09;5037859;28;21078;-74
2021/05/13 09:26:19;;;;;;;0.20;0.20;;;;;;;15.78;84.61;100472.09;5036363;28;20055;-73
2021/05/13 09:28:49;;;;;;;10.50;1.47;;;;;;;15.79;84.26;100463.31;5034583;28;20110;-73
2021/05/13 09:31:35;;;;;;;0.10;0.10;;;;;;;15.83;84.20;100469.16;5037194;28;20037;-73
2021/05/13 09:34:07;;;;;;;0.30;0.30;;;;;;;15.80;84.54;100459.38;5040021;28;20064;-73
2021/05/13 09:36:35;;;;;;;0.25;0.25;;;;;;;15.80;84.41;100450.91;5037170;28;20045;-74
2021/05/13 09:39:21;;;;;;;3.33;0.40;;;;;;;15.88;84.67;100461.41;5037232;28;20059;-73
2021/05/13 09:42:05;;;;;;;0.10;0.10;;;;;;;15.86;84.50;100452.47;5037747;28;20128;-73
2021/05/13 09:44:37;;;;;;;0.10;0.10;;;;;;;15.91;84.29;100459.94;5036092;28;20503;-74
2021/05/13 09:47:18;;;;;;;0.65;0.65;;;;;;;15.95;84.75;100454.50;5040308;28;20052;-75
2021/05/13 09:50:03;;;;;;;0.10;0.10;;;;;;;15.91;84.60;100443.06;5036751;28;20575;-75
2021/05/13 09:52:47;;;;;;;0.10;0.10;;;;;;;15.95;84.86;100448.88;5034457;28;20058;-74
2021/05/13 09:55:23;;;;;;;0.15;0.15;;;;;;;15.90;84.70;100441.41;5035049;28;20045;-77
2021/05/13 09:57:58;;;;;;;0.10;0.10;;;;;;;15.98;84.76;100457.50;5034408;28;20128;-75
2021/05/13 10:00:39;;;;;;;0.15;0.15;;;;;;;15.97;84.96;100453.03;5041043;28;20048;-74
2021/05/13 10:03:14;;;;;;;0.00;0.00;;;;;;;15.96;84.97;100442.06;5034311;28;20184;-74
2021/05/13 10:05:43;;;;;;;0.43;0.43;;;;;;;16.03;84.73;100439.66;5036199;28;20063;-73
2021/05/13 10:08:11;;;;;;;0.20;0.20;;;;;;;16.04;84.64;100444.97;5036082;28;20067;-75
2021/05/13 10:10:39;;;;;;;0.03;0.03;;;;;;;14.95;84.81;100280.97;5041401;28;20053;-76
2021/05/13 10:13:07;;;;;;;0.10;0.10;;;;;;;16.06;84.61;100453.91;5034890;28;20052;-75
2021/05/13 10:15:40;;;;;;;0.10;0.10;;;;;;;16.04;84.99;100436.53;5036248;28;20041;-75
2021/05/13 10:18:22;;;;;;;0.35;0.35;;;;;;;16.14;85.01;100440.22;5036467;28;20135;-76
2021/05/13 10:21:04;;;;;;;0.52;0.20;;;;;;;16.12;85.19;100432.09;5033533;28;20540;-73
2021/05/13 10:23:37;;;;;;;0.10;0.10;;;;;;;16.21;85.00;100444.28;5035991;28;20100;-74
2021/05/13 10:26:04;;;;;;;0.13;0.13;;;;;;;16.29;84.99;100442.66;5034068;28;20301;-73
2021/05/13 10:28:33;;;;;;;0.20;0.20;;;;;;;16.23;84.89;100410.94;5035627;28;20407;-72
2021/05/13 10:31:07;;;;;;;0.10;0.10;;;;;;;16.37;84.87;100441.03;5031911;28;20105;-72
2021/05/13 10:33:47;;;;;;;0.38;0.17;;;;;;;16.39;85.25;100430.28;5037391;28;20041;-72
2021/05/13 10:36:20;;;;;;;0.00;0.00;;;;;;;16.41;84.98;100427.97;5036678;28;20056;-72
2021/05/13 10:38:47;;;;;;;0.30;0.30;;;;;;;16.44;84.82;100438.59;5036603;28;20049;-72
2021/05/13 10:41:29;;;;;;;1.35;0.30;;;;;;;16.43;85.26;100431.28;5035313;28;20067;-72
2021/05/13 10:44:09;;;;;;;0.38;0.38;;;;;;;16.42;84.88;100429.66;5038154;28;20128;-74
2021/05/13 10:46:51;;;;;;;0.10;0.10;;;;;;;16.32;84.94;100406.22;5033986;28;20046;-73
2021/05/13 10:49:21;;;;;;;0.10;0.10;;;;;;;16.52;85.02;100426.56;5031714;28;20080;-73
2021/05/13 10:51:50;;;;;;;0.10;0.10;;;;;;;16.40;84.81;100400.94;5031611;28;20414;-73
2021/05/13 10:54:28;;;;;;;0.20;0.20;;;;;;;16.55;85.00;100423.09;5038785;28;20083;-73
2021/05/13 10:57:11;;;;;;;0.20;0.20;;;;;;;16.60;85.00;100420.09;5030963;28;20427;-74
2021/05/13 10:59:38;;;;;;;0.15;0.15;;;;;;;16.38;85.08;100390.00;5034950;28;20045;-72
2021/05/13 11:02:05;;;;;;;0.32;0.32;;;;;;;16.68;85.25;100438.22;5031947;28;20045;-73
2021/05/13 11:04:34;;;;;;;0.80;0.65;;;;;;;16.71;85.14;100437.56;5035118;28;20482;-74
2021/05/13 11:07:05;;;;;;;0.30;0.30;;;;;;;16.72;85.16;100420.34;5033176;28;20080;-71
2021/05/13 11:09:47;;;;;;;1.13;0.57;;;;;;;16.76;84.97;100424.22;5030840;28;21863;-74
2021/05/13 11:12:19;;;;;;;0.00;0.00;;;;;;;16.76;84.83;100424.22;5036291;28;20047;-71
2021/05/13 11:17:41;;;;;;;0.45;0.45;;;;;;;16.85;85.45;100427.03;5039197;28;20045;-72
2021/05/13 11:20:31;;;;;;;1.48;0.65;;;;;;;16.92;85.24;100423.75;5036344;28;20407;-72
2021/05/13 11:23:16;;;;;;;1.95;1.55;;;;;;;16.94;85.24;100424.28;5038823;28;20091;-72
2021/05/13 11:25:52;;;;;;;0.47;0.45;;;;;;;17.18;84.94;100430.31;5036497;28;20045;-73
2021/05/13 11:28:43;;;;;;;0.90;0.90;;;;;;;17.16;84.92;100424.19;5042435;28;20085;-72
2021/05/13 11:31:20;;;;;;;0.10;0.10;;;;;;;17.19;85.27;100448.06;5031764;28;20045;-72
2021/05/13 11:33:57;;;;;;;0.15;0.15;;;;;;;17.14;85.11;100446.25;5031373;28;20448;-74
2021/05/13 11:36:28;;;;;;;0.15;0.15;;;;;;;17.15;85.31;100455.53;5031397;28;20122;-73
2021/05/13 11:39:09;;;;;;;0.30;0.30;;;;;;;16.93;84.89;100445.19;5033392;28;20103;-73
2021/05/13 11:41:36;;;;;;;1.55;0.77;;;;;;;16.92;85.04;100449.13;5032566;28;20111;-74
2021/05/13 11:44:03;;;;;;;0.10;0.10;;;;;;;16.93;85.13;100462.09;5039395;28;20089;-75
2021/05/13 11:46:30;;;;;;;2.33;0.50;;;;;;;16.85;85.19;100448.78;5032911;28;20099;-73
2021/05/13 11:48:57;;;;;;;0.20;0.20;;;;;;;16.88;84.88;100450.94;5042025;28;20048;-73
2021/05/13 11:51:26;;;;;;;1.80;0.77;;;;;;;16.79;84.92;100448.94;5034420;28;20060;-72